Current Weather

Kariba Intl

Kariba Intl, Zimbabwe (FVKB)

Report from: Friday, July 12, 2024 5:00 PM CAT
Current time: Saturday, July 13, 2024 1:39 AM CAT

Nearby weather – Weather history – Daily summaries
Weather forecast

Temperature26.0°C (78.8°F)
Dew point6.0°C (42.8°F)
Winds 2 kts (1 m/s, 2.3 mph) West-Southwest (240°)
Clouds Sky clear
Altimeter30.03 in.Hg (1017 mB)
Relative humidity28 %
Density altitude1,284 ft. (391 m)
Remarks Ceiling and visibility OK
No significant changes expected in the next two hours
Flight conditions Visual Meteorological Conditions
Raw dataFVKB 121500Z 24002KT CAVOK 26/06 Q1017 NOSIG
An unhandled exception has occurred. See browser dev tools for details. Reload 🗙